Time;durP1;ratioP1;P1;durP2;ratioP2;P2;SDS_P1;SDS_P2;PMS_P1;PMS_P2;Temp;Humidity;BMP_temperature;BMP_pressure;BME280_temperature;BME280_humidity;BME280_pressure;Samples;Min_cycle;Max_cycle;Signal;HPM_P1;HPM_P2
2021/12/06 00:01:31;;;;;;;21.03;14.60;;;;;;;;;;5134736;27;20201;-93
2021/12/06 00:04:01;;;;;;;17.47;12.37;;;;;;;;;;5134337;27;20201;-94
2021/12/06 00:06:33;;;;;;;21.93;13.47;;;;;;;;;;5134369;27;20217;-94
2021/12/06 00:09:00;;;;;;;16.97;12.10;;;;;;;;;;5134537;27;20205;-93
2021/12/06 00:11:29;;;;;;;16.40;12.63;;;;;;;;;;5134303;27;20195;-93
2021/12/06 00:13:56;;;;;;;20.20;11.43;;;;;;;;;;5134464;27;20708;-93
2021/12/06 00:16:24;;;;;;;19.57;13.60;;;;;;;;;;5134255;27;20198;-93
2021/12/06 00:18:52;;;;;;;18.60;12.97;;;;;;;;;;5134490;27;20617;-93
2021/12/06 00:21:20;;;;;;;23.13;14.20;;;;;;;;;;5134082;27;20201;-94
2021/12/06 00:23:47;;;;;;;24.53;15.27;;;;;;;;;;5134281;27;20205;-93
2021/12/06 00:26:15;;;;;;;20.30;13.43;;;;;;;;;;5134195;27;20250;-93
2021/12/06 00:28:45;;;;;;;24.27;16.10;;;;;;;;;;5134018;27;20187;-94
2021/12/06 00:31:14;;;;;;;20.70;14.30;;;;;;;;;;5133828;27;20187;-93
2021/12/06 00:33:42;;;;;;;26.07;14.43;;;;;;;;;;5134067;27;20193;-93
2021/12/06 00:36:16;;;;;;;23.10;13.70;;;;;;;;;;5134004;27;20186;-94
2021/12/06 00:38:45;;;;;;;23.37;15.20;;;;;;;;;;5133909;27;20230;-95
2021/12/06 00:41:28;;;;;;;21.10;14.07;;;;;;;;;;5173114;27;21157;-92
2021/12/06 00:43:56;;;;;;;25.57;16.63;;;;;;;;;;5172853;27;20190;-92
2021/12/06 00:46:23;;;;;;;24.90;14.73;;;;;;;;;;5172973;27;20186;-91
2021/12/06 00:48:50;;;;;;;24.77;15.37;;;;;;;;;;5172633;27;20679;-91
2021/12/06 00:51:18;;;;;;;26.87;14.50;;;;;;;;;;5172769;27;20193;-92
2021/12/06 00:53:45;;;;;;;24.90;15.90;;;;;;;;;;5172837;27;20665;-92
2021/12/06 00:56:13;;;;;;;29.17;16.67;;;;;;;;;;5172619;27;20192;-91
2021/12/06 00:58:43;;;;;;;27.53;14.70;;;;;;;;;;5172782;27;20189;-92
2021/12/06 01:01:11;;;;;;;18.70;11.63;;;;;;;;;;5172644;27;20292;-91
2021/12/06 01:03:40;;;;;;;19.63;11.87;;;;;;;;;;5172503;27;20640;-91
2021/12/06 01:06:09;;;;;;;18.03;11.23;;;;;;;;;;5172301;27;20193;-91
2021/12/06 01:08:36;;;;;;;15.80;10.10;;;;;;;;;;5172603;27;20193;-92
2021/12/06 01:11:05;;;;;;;13.13;9.40;;;;;;;;;;5172586;27;20276;-91
2021/12/06 01:13:32;;;;;;;14.70;10.63;;;;;;;;;;5172560;27;20225;-91
2021/12/06 01:16:01;;;;;;;17.97;12.53;;;;;;;;;;5172107;27;20220;-92
2021/12/06 01:18:29;;;;;;;16.20;10.83;;;;;;;;;;5172587;27;20692;-91
2021/12/06 01:21:04;;;;;;;20.63;12.27;;;;;;;;;;5172469;27;20273;-91
2021/12/06 01:23:44;;;;;;;17.40;12.00;;;;;;;;;;5172272;27;20193;-92
2021/12/06 01:26:29;;;;;;;17.73;12.50;;;;;;;;;;5171907;27;20185;-91
2021/12/06 01:29:09;;;;;;;18.73;12.40;;;;;;;;;;5172279;27;20189;-91
2021/12/06 01:31:47;;;;;;;17.67;11.90;;;;;;;;;;5172101;27;20196;-91
2021/12/06 01:39:46;;;;;;;16.33;11.83;;;;;;;;;;5171704;27;20273;-91
2021/12/06 01:42:13;;;;;;;18.53;11.53;;;;;;;;;;5171636;27;20189;-92
2021/12/06 01:44:43;;;;;;;12.07;8.90;;;;;;;;;;5171982;27;20607;-92
2021/12/06 01:47:14;;;;;;;13.33;9.73;;;;;;;;;;5171745;27;20577;-93
2021/12/06 01:49:43;;;;;;;13.07;9.67;;;;;;;;;;5171533;27;20265;-92
2021/12/06 01:52:16;;;;;;;13.57;10.37;;;;;;;;;;5161210;27;20574;-92
2021/12/06 01:54:44;;;;;;;14.00;10.37;;;;;;;;;;5157765;27;20285;-92
2021/12/06 01:57:11;;;;;;;15.03;11.20;;;;;;;;;;5157558;27;20194;-91
2021/12/06 01:59:39;;;;;;;15.07;11.63;;;;;;;;;;5157259;27;20289;-91
2021/12/06 02:02:08;;;;;;;12.93;10.27;;;;;;;;;;5157645;27;20575;-91
2021/12/06 02:04:38;;;;;;;12.80;9.80;;;;;;;;;;5157551;27;20582;-92
2021/12/06 02:07:07;;;;;;;13.87;9.23;;;;;;;;;;5157775;27;20273;-92
2021/12/06 02:09:34;;;;;;;9.07;8.17;;;;;;;;;;5157311;27;20250;-91
2021/12/06 02:12:03;;;;;;;15.83;11.27;;;;;;;;;;5157691;27;20198;-92
2021/12/06 02:14:39;;;;;;;14.77;11.00;;;;;;;;;;5157392;27;20254;-91
2021/12/06 02:17:13;;;;;;;13.83;11.07;;;;;;;;;;5157124;27;20186;-91
2021/12/06 02:19:45;;;;;;;12.40;9.13;;;;;;;;;;5157022;27;20194;-91
2021/12/06 02:22:16;;;;;;;10.30;8.33;;;;;;;;;;5157187;27;20198;-92
2021/12/06 02:24:44;;;;;;;9.63;8.30;;;;;;;;;;5156853;27;20257;-92
2021/12/06 02:27:13;;;;;;;12.60;8.63;;;;;;;;;;5156919;27;20288;-91
2021/12/06 02:29:42;;;;;;;12.20;8.23;;;;;;;;;;5156760;27;20217;-91
2021/12/06 02:32:12;;;;;;;11.63;8.90;;;;;;;;;;5156738;27;20293;-92
2021/12/06 02:34:40;;;;;;;10.87;8.17;;;;;;;;;;5156942;27;20281;-92
2021/12/06 02:37:09;;;;;;;10.83;8.37;;;;;;;;;;5156730;27;20662;-90
2021/12/06 02:39:38;;;;;;;9.10;7.50;;;;;;;;;;5156601;27;20228;-92
2021/12/06 02:42:07;;;;;;;13.53;8.93;;;;;;;;;;5156658;27;20219;-91
2021/12/06 02:44:35;;;;;;;11.27;9.10;;;;;;;;;;5156742;27;20225;-91
2021/12/06 02:47:03;;;;;;;14.20;10.13;;;;;;;;;;5156399;27;20197;-92
2021/12/06 02:49:31;;;;;;;12.40;9.33;;;;;;;;;;5156726;27;20190;-92
2021/12/06 02:51:58;;;;;;;14.37;10.23;;;;;;;;;;5156486;27;20272;-91
2021/12/06 02:54:26;;;;;;;12.63;10.17;;;;;;;;;;5156289;27;20269;-91
2021/12/06 02:57:07;;;;;;;11.93;10.67;;;;;;;;;;5156411;27;20189;-91
2021/12/06 02:59:35;;;;;;;13.97;11.33;;;;;;;;;;5156172;27;20189;-91
2021/12/06 03:02:05;;;;;;;14.20;12.23;;;;;;;;;;5156267;27;20218;-91
2021/12/06 03:04:33;;;;;;;14.67;11.77;;;;;;;;;;5155540;27;20178;-92
2021/12/06 03:07:00;;;;;;;17.77;14.93;;;;;;;;;;5156277;27;20295;-93
2021/12/06 03:09:29;;;;;;;16.80;13.20;;;;;;;;;;5156149;27;20677;-92
2021/12/06 03:12:00;;;;;;;18.77;12.57;;;;;;;;;;5156059;27;20213;-92
2021/12/06 03:14:30;;;;;;;13.30;10.57;;;;;;;;;;5156123;27;20204;-93
2021/12/06 03:16:59;;;;;;;15.77;10.53;;;;;;;;;;5156104;27;20206;-92
2021/12/06 03:19:26;;;;;;;15.77;11.60;;;;;;;;;;5155875;27;20683;-91
2021/12/06 03:21:53;;;;;;;14.40;10.03;;;;;;;;;;5155631;27;20224;-92
2021/12/06 03:24:21;;;;;;;14.33;11.63;;;;;;;;;;5156030;27;20193;-91
2021/12/06 03:26:48;;;;;;;14.67;11.40;;;;;;;;;;5156028;27;20189;-92
2021/12/06 03:29:18;;;;;;;12.77;10.17;;;;;;;;;;5156052;27;20190;-92
2021/12/06 03:31:46;;;;;;;23.60;17.97;;;;;;;;;;5155821;27;20215;-92
2021/12/06 03:34:14;;;;;;;17.30;13.13;;;;;;;;;;5155735;27;20217;-92
2021/12/06 03:36:42;;;;;;;17.00;11.27;;;;;;;;;;5155666;27;20685;-92
2021/12/06 03:39:12;;;;;;;15.73;9.50;;;;;;;;;;5155413;27;20194;-91
2021/12/06 03:41:39;;;;;;;15.83;9.77;;;;;;;;;;5155547;27;20218;-92
2021/12/06 03:44:07;;;;;;;16.33;11.10;;;;;;;;;;5155691;27;20200;-92
2021/12/06 03:46:36;;;;;;;19.90;11.67;;;;;;;;;;5155390;27;20227;-92
2021/12/06 03:49:09;;;;;;;19.10;11.27;;;;;;;;;;5155391;27;20576;-92
2021/12/06 03:51:36;;;;;;;30.53;14.73;;;;;;;;;;5155625;27;20193;-91
2021/12/06 03:54:04;;;;;;;22.43;13.53;;;;;;;;;;5155722;27;20236;-91
2021/12/06 03:56:31;;;;;;;15.63;10.70;;;;;;;;;;5155480;27;20688;-91
2021/12/06 03:58:59;;;;;;;18.43;10.37;;;;;;;;;;5155268;27;20654;-91
2021/12/06 04:01:26;;;;;;;21.97;15.33;;;;;;;;;;5155012;27;20226;-91
2021/12/06 04:03:55;;;;;;;20.07;12.87;;;;;;;;;;5155138;27;20216;-91
2021/12/06 04:06:22;;;;;;;47.47;33.90;;;;;;;;;;5154942;27;20201;-91
2021/12/06 04:08:50;;;;;;;31.53;22.97;;;;;;;;;;5153064;27;20201;-92
2021/12/06 04:14:24;;;;;;;12.50;9.73;;;;;;;;;;5173855;27;20259;-93
2021/12/06 04:16:51;;;;;;;21.50;15.10;;;;;;;;;;5155032;27;20198;-94
2021/12/06 04:41:50;;;;;;;18.50;12.53;;;;;;;;;;5156365;27;20231;-94
2021/12/06 04:44:18;;;;;;;14.17;11.87;;;;;;;;;;5154717;27;20190;-94
2021/12/06 04:46:46;;;;;;;16.23;11.07;;;;;;;;;;5154601;27;20258;-94
2021/12/06 04:49:14;;;;;;;15.67;12.40;;;;;;;;;;5151967;27;20210;-94
2021/12/06 04:51:44;;;;;;;23.73;17.23;;;;;;;;;;5133822;27;20298;-94
2021/12/06 04:54:13;;;;;;;24.03;17.93;;;;;;;;;;5133734;28;20316;-94
2021/12/06 04:56:43;;;;;;;25.77;18.10;;;;;;;;;;5133857;27;20212;-93
2021/12/06 04:59:16;;;;;;;20.97;17.57;;;;;;;;;;5134046;28;20560;-93
2021/12/06 05:01:44;;;;;;;23.60;17.03;;;;;;;;;;5133587;28;20716;-94
2021/12/06 05:04:14;;;;;;;21.60;17.17;;;;;;;;;;5133714;28;20344;-93
2021/12/06 05:06:44;;;;;;;26.20;19.07;;;;;;;;;;5133630;28;20183;-93
2021/12/06 05:09:15;;;;;;;27.57;18.67;;;;;;;;;;5133686;28;20194;-93
2021/12/06 05:11:44;;;;;;;21.47;15.70;;;;;;;;;;5134086;27;20196;-93
2021/12/06 05:14:13;;;;;;;23.63;18.43;;;;;;;;;;5133645;28;20201;-94
2021/12/06 05:16:40;;;;;;;26.23;20.30;;;;;;;;;;5133454;28;20285;-95
2021/12/06 05:19:08;;;;;;;33.07;26.40;;;;;;;;;;5133611;28;20273;-94
2021/12/06 05:21:36;;;;;;;31.20;23.70;;;;;;;;;;5133475;28;20717;-93
2021/12/06 05:24:06;;;;;;;30.30;23.57;;;;;;;;;;5133285;28;20195;-94
2021/12/06 05:26:33;;;;;;;35.43;26.80;;;;;;;;;;5134353;27;20194;-93
2021/12/06 05:29:02;;;;;;;23.33;17.47;;;;;;;;;;5137580;27;20195;-94
2021/12/06 05:31:33;;;;;;;26.67;18.63;;;;;;;;;;5137374;27;20595;-95
2021/12/06 05:34:07;;;;;;;25.73;17.97;;;;;;;;;;5137237;27;20189;-94
2021/12/06 05:36:34;;;;;;;24.60;19.83;;;;;;;;;;5137434;27;20191;-94
2021/12/06 05:39:01;;;;;;;28.53;21.60;;;;;;;;;;5137140;27;20201;-91
2021/12/06 05:41:29;;;;;;;28.53;23.67;;;;;;;;;;5137222;27;20215;-94
2021/12/06 05:43:56;;;;;;;23.97;20.23;;;;;;;;;;5137204;27;21032;-95
2021/12/06 05:46:23;;;;;;;24.13;17.67;;;;;;;;;;5136981;27;20195;-94
2021/12/06 05:48:52;;;;;;;19.93;15.40;;;;;;;;;;5137245;27;20201;-94
2021/12/06 05:51:19;;;;;;;19.73;15.20;;;;;;;;;;5137133;27;20206;-94
2021/12/06 05:53:46;;;;;;;27.87;21.50;;;;;;;;;;5136641;27;20285;-94
2021/12/06 05:56:14;;;;;;;27.80;19.83;;;;;;;;;;5136692;27;20674;-93
2021/12/06 05:58:41;;;;;;;21.73;17.83;;;;;;;;;;5136772;27;20187;-94
2021/12/06 06:01:09;;;;;;;21.93;18.23;;;;;;;;;;5136590;27;20241;-95
2021/12/06 06:03:36;;;;;;;16.83;13.67;;;;;;;;;;5136799;27;20191;-94
2021/12/06 06:06:05;;;;;;;17.33;12.03;;;;;;;;;;5136763;27;20206;-94
2021/12/06 06:08:32;;;;;;;16.10;12.43;;;;;;;;;;5136713;27;20659;-95
2021/12/06 06:11:00;;;;;;;29.73;23.13;;;;;;;;;;5136433;27;20190;-94
2021/12/06 06:13:27;;;;;;;25.10;20.80;;;;;;;;;;5136521;27;20274;-94
2021/12/06 06:15:55;;;;;;;20.20;15.40;;;;;;;;;;5136253;27;20230;-95
2021/12/06 06:18:23;;;;;;;16.73;14.13;;;;;;;;;;5136447;27;20247;-94
2021/12/06 06:20:52;;;;;;;21.20;14.80;;;;;;;;;;5136497;27;20207;-95
2021/12/06 06:23:21;;;;;;;27.17;22.27;;;;;;;;;;5136248;27;20199;-94
2021/12/06 06:25:49;;;;;;;12.80;11.50;;;;;;;;;;5136227;27;20198;-94
2021/12/06 06:28:16;;;;;;;11.00;9.83;;;;;;;;;;5136311;27;20199;-94
2021/12/06 06:30:44;;;;;;;8.87;8.00;;;;;;;;;;5136551;27;20196;-94
2021/12/06 06:33:11;;;;;;;14.90;13.30;;;;;;;;;;5136306;27;20199;-94
2021/12/06 06:35:39;;;;;;;16.77;13.93;;;;;;;;;;5135978;27;20183;-94
2021/12/06 06:38:06;;;;;;;16.27;12.80;;;;;;;;;;5136023;27;20285;-94
2021/12/06 06:40:35;;;;;;;15.17;12.87;;;;;;;;;;5135594;27;20325;-94
2021/12/06 06:43:03;;;;;;;18.40;13.60;;;;;;;;;;5135884;27;20215;-95
2021/12/06 06:45:30;;;;;;;16.53;13.30;;;;;;;;;;5135857;27;20677;-95
2021/12/06 06:47:58;;;;;;;22.33;14.97;;;;;;;;;;5135290;27;20227;-94
2021/12/06 06:50:25;;;;;;;16.10;14.40;;;;;;;;;;5135850;27;20892;-94
2021/12/06 06:52:53;;;;;;;21.67;19.50;;;;;;;;;;5135702;27;20218;-95
2021/12/06 06:55:21;;;;;;;18.30;16.53;;;;;;;;;;5135833;27;20183;-94
2021/12/06 06:57:51;;;;;;;16.47;14.87;;;;;;;;;;5135884;27;20198;-94
2021/12/06 07:00:21;;;;;;;18.87;17.13;;;;;;;;;;5135737;27;20211;-94
2021/12/06 07:02:48;;;;;;;9.73;8.77;;;;;;;;;;5136146;27;20592;-95
2021/12/06 07:05:16;;;;;;;7.83;7.00;;;;;;;;;;5135397;27;20290;-95
2021/12/06 07:07:43;;;;;;;10.93;8.40;;;;;;;;;;5135410;27;20198;-96
2021/12/06 07:10:11;;;;;;;7.97;6.93;;;;;;;;;;5135673;27;20584;-94
2021/12/06 07:12:45;;;;;;;8.43;7.73;;;;;;;;;;5135624;27;20558;-96
2021/12/06 07:15:15;;;;;;;12.80;11.70;;;;;;;;;;5135587;27;20190;-95
2021/12/06 07:17:43;;;;;;;10.23;9.17;;;;;;;;;;5135283;27;20205;-95
2021/12/06 07:20:12;;;;;;;7.40;6.80;;;;;;;;;;5135432;27;20281;-96
2021/12/06 07:22:39;;;;;;;9.10;7.83;;;;;;;;;;5135312;27;20260;-95
2021/12/06 07:25:07;;;;;;;6.37;5.87;;;;;;;;;;5135101;27;20737;-94
2021/12/06 07:27:35;;;;;;;13.57;11.77;;;;;;;;;;5134989;27;20195;-95
2021/12/06 07:30:02;;;;;;;10.40;9.20;;;;;;;;;;5135051;27;20199;-95
2021/12/06 07:32:31;;;;;;;9.00;8.07;;;;;;;;;;5134966;27;20243;-94
2021/12/06 07:34:58;;;;;;;6.47;5.90;;;;;;;;;;5135215;27;20202;-93
2021/12/06 07:37:26;;;;;;;7.37;6.77;;;;;;;;;;5134871;27;20198;-94
2021/12/06 07:39:53;;;;;;;6.60;6.00;;;;;;;;;;5134460;27;20252;-95
2021/12/06 07:42:20;;;;;;;11.20;7.50;;;;;;;;;;5134580;27;20222;-95
2021/12/06 07:44:48;;;;;;;6.27;5.67;;;;;;;;;;5134727;27;20762;-95
2021/12/06 07:47:15;;;;;;;8.40;6.70;;;;;;;;;;5135118;27;20583;-94
2021/12/06 07:49:45;;;;;;;7.70;6.17;;;;;;;;;;5134200;27;20194;-95
2021/12/06 07:52:13;;;;;;;7.83;6.53;;;;;;;;;;5134590;27;20191;-95
2021/12/06 07:54:42;;;;;;;8.17;7.03;;;;;;;;;;5134489;27;20198;-96
2021/12/06 07:57:10;;;;;;;8.90;7.07;;;;;;;;;;5134349;27;20202;-95
2021/12/06 07:59:38;;;;;;;15.67;14.17;;;;;;;;;;5134298;27;20190;-95
2021/12/06 08:02:06;;;;;;;6.27;5.07;;;;;;;;;;5134306;27;20218;-95
2021/12/06 08:04:34;;;;;;;7.07;6.43;;;;;;;;;;5134315;27;20610;-96
2021/12/06 08:07:03;;;;;;;6.30;5.47;;;;;;;;;;5134241;27;20194;-95
2021/12/06 08:09:31;;;;;;;8.47;7.57;;;;;;;;;;5134232;27;20230;-95
2021/12/06 08:11:58;;;;;;;6.97;5.90;;;;;;;;;;5134431;27;20207;-95
2021/12/06 08:14:26;;;;;;;6.83;6.13;;;;;;;;;;5134321;27;20224;-96
2021/12/06 08:16:53;;;;;;;6.87;5.10;;;;;;;;;;5134408;27;20202;-95
2021/12/06 08:19:20;;;;;;;5.07;4.50;;;;;;;;;;5134074;27;20281;-96
2021/12/06 08:21:47;;;;;;;6.20;5.63;;;;;;;;;;5133985;27;20229;-96
2021/12/06 08:24:17;;;;;;;6.00;5.50;;;;;;;;;;5135147;27;20187;-96
2021/12/06 08:26:47;;;;;;;9.30;7.07;;;;;;;;;;5139400;27;20254;-96
2021/12/06 08:29:16;;;;;;;11.90;8.33;;;;;;;;;;5134479;27;20199;-96
2021/12/06 08:31:44;;;;;;;6.93;5.23;;;;;;;;;;5134338;27;20232;-96
2021/12/06 08:34:12;;;;;;;7.43;5.77;;;;;;;;;;5134169;27;20198;-96
2021/12/06 08:36:39;;;;;;;9.90;5.93;;;;;;;;;;5134463;27;20183;-96
2021/12/06 08:39:07;;;;;;;8.17;6.43;;;;;;;;;;5133818;27;20199;-96
2021/12/06 08:41:36;;;;;;;7.47;5.77;;;;;;;;;;5133994;28;20203;-96
2021/12/06 08:44:04;;;;;;;8.73;6.63;;;;;;;;;;5134062;27;20260;-95
2021/12/06 08:46:33;;;;;;;8.97;6.23;;;;;;;;;;5133946;28;20210;-96
2021/12/06 08:49:05;;;;;;;5.10;4.70;;;;;;;;;;5133798;28;20198;-96
2021/12/06 08:51:34;;;;;;;5.37;3.70;;;;;;;;;;5133987;27;20214;-96
2021/12/06 08:54:01;;;;;;;4.40;3.83;;;;;;;;;;5133800;28;20202;-96
2021/12/06 08:56:29;;;;;;;6.30;4.70;;;;;;;;;;5133920;28;20578;-96
2021/12/06 08:58:58;;;;;;;9.93;6.03;;;;;;;;;;5133881;28;20190;-96
2021/12/06 09:01:26;;;;;;;8.37;6.63;;;;;;;;;;5134835;27;20619;-95
2021/12/06 09:03:53;;;;;;;9.17;6.70;;;;;;;;;;5138215;27;20195;-96
2021/12/06 09:06:21;;;;;;;6.07;4.90;;;;;;;;;;5137842;27;20270;-96
2021/12/06 09:08:48;;;;;;;7.30;5.00;;;;;;;;;;5137867;27;20281;-95
2021/12/06 09:11:16;;;;;;;8.80;5.87;;;;;;;;;;5137939;27;20233;-96
2021/12/06 09:13:44;;;;;;;8.90;5.60;;;;;;;;;;5138030;27;20199;-96
2021/12/06 09:16:14;;;;;;;8.57;4.77;;;;;;;;;;5137710;27;20226;-95
2021/12/06 09:18:45;;;;;;;5.73;4.33;;;;;;;;;;5137692;27;20198;-96
2021/12/06 09:21:15;;;;;;;11.37;6.77;;;;;;;;;;5137756;27;20210;-95
2021/12/06 09:23:42;;;;;;;9.73;7.83;;;;;;;;;;5137352;27;20694;-96
2021/12/06 09:26:10;;;;;;;9.97;6.27;;;;;;;;;;5137677;27;20198;-95
2021/12/06 09:28:38;;;;;;;8.93;5.10;;;;;;;;;;5137791;27;20195;-95
2021/12/06 09:31:06;;;;;;;10.17;4.27;;;;;;;;;;5137559;27;20282;-95
2021/12/06 09:33:36;;;;;;;7.10;4.27;;;;;;;;;;5137401;27;20570;-95
2021/12/06 09:36:04;;;;;;;8.77;4.93;;;;;;;;;;5137275;27;20198;-95
2021/12/06 09:38:34;;;;;;;10.93;8.27;;;;;;;;;;5137271;27;20206;-96
2021/12/06 09:41:02;;;;;;;8.03;6.30;;;;;;;;;;5136885;27;20254;-95
2021/12/06 09:43:29;;;;;;;7.60;5.87;;;;;;;;;;5137064;27;20694;-95
2021/12/06 09:45:57;;;;;;;11.20;7.43;;;;;;;;;;5137140;27;20195;-96
2021/12/06 09:48:25;;;;;;;7.43;5.43;;;;;;;;;;5136947;27;20678;-96
2021/12/06 09:50:57;;;;;;;6.80;4.33;;;;;;;;;;5137467;27;20291;-96
2021/12/06 09:53:27;;;;;;;3.60;2.50;;;;;;;;;;5137351;27;20202;-96
2021/12/06 09:55:57;;;;;;;4.33;3.27;;;;;;;;;;5137068;27;20203;-96
2021/12/06 09:58:25;;;;;;;6.33;4.37;;;;;;;;;;5136704;27;20226;-96
2021/12/06 10:00:55;;;;;;;4.70;3.60;;;;;;;;;;5136661;27;20270;-96
2021/12/06 10:03:25;;;;;;;9.03;4.83;;;;;;;;;;5136727;27;20702;-96
2021/12/06 10:05:57;;;;;;;6.07;4.67;;;;;;;;;;5136984;27;20184;-96
2021/12/06 10:08:25;;;;;;;9.17;4.80;;;;;;;;;;5136689;27;20212;-96
2021/12/06 10:10:52;;;;;;;6.37;4.97;;;;;;;;;;5136748;27;20200;-95
2021/12/06 10:13:20;;;;;;;8.37;4.33;;;;;;;;;;5136692;27;20561;-95
2021/12/06 10:15:48;;;;;;;4.70;4.23;;;;;;;;;;5136743;27;20661;-95
2021/12/06 10:18:17;;;;;;;5.13;3.47;;;;;;;;;;5136627;27;20206;-96
2021/12/06 10:20:44;;;;;;;6.57;4.27;;;;;;;;;;5136491;27;20209;-96
2021/12/06 10:23:15;;;;;;;8.20;3.97;;;;;;;;;;5136230;27;20717;-96
2021/12/06 10:25:45;;;;;;;4.67;3.97;;;;;;;;;;5136163;27;20228;-95
2021/12/06 10:28:13;;;;;;;7.47;5.37;;;;;;;;;;5136825;27;20290;-95
2021/12/06 10:30:43;;;;;;;8.27;3.83;;;;;;;;;;5136122;27;20197;-95
2021/12/06 10:33:12;;;;;;;14.43;10.10;;;;;;;;;;5136088;27;20219;-96
2021/12/06 10:35:41;;;;;;;9.53;6.27;;;;;;;;;;5135933;27;20202;-96
2021/12/06 10:38:08;;;;;;;11.57;6.57;;;;;;;;;;5136312;27;20719;-96
2021/12/06 10:40:40;;;;;;;12.37;7.20;;;;;;;;;;5136083;27;20676;-95
2021/12/06 10:43:09;;;;;;;10.27;7.63;;;;;;;;;;5136172;27;20276;-96
2021/12/06 10:45:39;;;;;;;11.27;6.40;;;;;;;;;;5135801;27;20197;-96
2021/12/06 10:48:12;;;;;;;7.57;4.90;;;;;;;;;;5135940;27;20277;-96
2021/12/06 10:50:42;;;;;;;5.97;4.67;;;;;;;;;;5135872;27;20281;-95
2021/12/06 10:53:12;;;;;;;10.23;5.00;;;;;;;;;;5135893;27;20183;-96
2021/12/06 10:55:41;;;;;;;5.87;4.47;;;;;;;;;;5135790;27;20191;-95
2021/12/06 10:58:13;;;;;;;9.40;5.00;;;;;;;;;;5135822;27;20243;-96
2021/12/06 11:00:47;;;;;;;5.73;4.70;;;;;;;;;;5135802;27;20195;-96
2021/12/06 11:03:24;;;;;;;5.03;3.33;;;;;;;;;;5135740;27;20256;-95
2021/12/06 11:05:54;;;;;;;7.90;4.70;;;;;;;;;;5135857;27;20214;-95
2021/12/06 11:08:23;;;;;;;10.43;8.27;;;;;;;;;;5136175;27;20210;-96
2021/12/06 11:10:55;;;;;;;59.33;33.73;;;;;;;;;;5135424;27;20195;-96
2021/12/06 11:13:25;;;;;;;62.87;38.73;;;;;;;;;;5135817;27;20655;-96
2021/12/06 11:16:01;;;;;;;31.03;18.80;;;;;;;;;;5136211;27;20222;-96
2021/12/06 11:18:33;;;;;;;39.27;23.17;;;;;;;;;;5135524;27;20190;-96
2021/12/06 11:21:01;;;;;;;30.57;16.17;;;;;;;;;;5135268;27;20202;-96
2021/12/06 11:23:28;;;;;;;31.93;19.47;;;;;;;;;;5135687;27;20674;-96
2021/12/06 11:25:58;;;;;;;31.93;21.50;;;;;;;;;;5134886;27;20203;-96
2021/12/06 11:28:27;;;;;;;10.20;5.77;;;;;;;;;;5135362;27;20206;-96
2021/12/06 11:31:00;;;;;;;21.73;17.53;;;;;;;;;;5135051;27;20190;-96
2021/12/06 11:33:29;;;;;;;13.73;9.97;;;;;;;;;;5135426;27;20199;-96
2021/12/06 11:35:56;;;;;;;17.17;11.53;;;;;;;;;;5135049;27;20285;-96
2021/12/06 11:38:23;;;;;;;16.73;11.80;;;;;;;;;;5134946;27;20201;-95
2021/12/06 11:40:58;;;;;;;9.77;8.47;;;;;;;;;;5134519;27;20219;-96
2021/12/06 11:43:27;;;;;;;19.33;14.07;;;;;;;;;;5134661;27;20224;-95
2021/12/06 11:45:57;;;;;;;22.13;16.37;;;;;;;;;;5134869;27;20205;-96
2021/12/06 11:48:26;;;;;;;13.17;7.97;;;;;;;;;;5135023;27;20255;-96
2021/12/06 11:50:55;;;;;;;16.00;14.23;;;;;;;;;;5134774;27;20201;-95
2021/12/06 11:53:26;;;;;;;14.57;9.00;;;;;;;;;;5134746;27;20251;-96
2021/12/06 11:55:55;;;;;;;9.03;8.10;;;;;;;;;;5134662;27;20197;-96
2021/12/06 11:58:26;;;;;;;8.17;5.63;;;;;;;;;;5134898;27;20201;-96
2021/12/06 12:01:05;;;;;;;9.53;6.77;;;;;;;;;;5134851;27;20266;-95
2021/12/06 12:03:33;;;;;;;6.20;4.73;;;;;;;;;;5134637;27;20217;-95
2021/12/06 12:06:01;;;;;;;9.43;6.37;;;;;;;;;;5134596;27;20198;-96
2021/12/06 12:08:32;;;;;;;9.27;5.50;;;;;;;;;;5135318;27;20201;-96
2021/12/06 12:11:00;;;;;;;10.80;7.80;;;;;;;;;;5135176;27;20191;-95
2021/12/06 12:13:31;;;;;;;18.83;16.33;;;;;;;;;;5134082;27;20198;-96
2021/12/06 12:16:02;;;;;;;9.60;5.10;;;;;;;;;;5134342;27;20285;-94
2021/12/06 12:18:29;;;;;;;9.80;3.70;;;;;;;;;;5134215;27;20189;-95
2021/12/06 12:20:57;;;;;;;11.57;9.70;;;;;;;;;;5134398;27;20269;-96
2021/12/06 12:23:30;;;;;;;24.23;17.87;;;;;;;;;;5134198;27;20225;-95
2021/12/06 12:26:01;;;;;;;8.03;5.20;;;;;;;;;;5134351;27;20198;-96
2021/12/06 12:28:36;;;;;;;10.27;6.43;;;;;;;;;;5134021;27;20705;-95
2021/12/06 12:31:05;;;;;;;12.43;7.80;;;;;;;;;;5133933;27;20184;-96
2021/12/06 12:33:33;;;;;;;7.70;3.63;;;;;;;;;;5133869;27;20281;-95
2021/12/06 12:36:05;;;;;;;10.57;8.33;;;;;;;;;;5133682;27;20191;-95
2021/12/06 12:38:34;;;;;;;14.63;11.47;;;;;;;;;;5133883;27;20275;-95
2021/12/06 12:41:05;;;;;;;7.00;5.97;;;;;;;;;;5133632;28;20701;-96
2021/12/06 12:43:37;;;;;;;7.47;3.80;;;;;;;;;;5133699;27;20221;-94
2021/12/06 12:46:08;;;;;;;14.60;8.57;;;;;;;;;;5133978;28;20236;-96
2021/12/06 12:48:51;;;;;;;3.87;3.50;;;;;;;;;;5134085;28;20727;-96
2021/12/06 12:51:21;;;;;;;6.07;3.07;;;;;;;;;;5134285;28;20183;-96
2021/12/06 12:53:56;;;;;;;14.77;12.77;;;;;;;;;;5134341;27;20179;-96
2021/12/06 12:56:26;;;;;;;17.03;13.13;;;;;;;;;;5133760;28;20752;-96
2021/12/06 12:58:55;;;;;;;21.97;17.83;;;;;;;;;;5133672;27;20191;-96
2021/12/06 13:01:24;;;;;;;11.73;8.57;;;;;;;;;;5133647;28;20281;-95
2021/12/06 13:03:56;;;;;;;13.30;9.30;;;;;;;;;;5133793;28;20271;-96
2021/12/06 13:06:27;;;;;;;21.77;15.13;;;;;;;;;;5133752;28;20203;-96
2021/12/06 13:08:55;;;;;;;24.27;17.13;;;;;;;;;;5133788;28;20255;-95
2021/12/06 13:11:25;;;;;;;13.80;10.40;;;;;;;;;;5133626;28;20192;-95
2021/12/06 13:13:54;;;;;;;11.70;10.30;;;;;;;;;;5134047;27;20241;-94
2021/12/06 13:16:43;;;;;;;8.53;5.47;;;;;;;;;;5133758;27;20195;-94
2021/12/06 13:19:16;;;;;;;20.33;14.57;;;;;;;;;;5133792;27;20193;-95
2021/12/06 13:21:51;;;;;;;10.13;5.33;;;;;;;;;;5133419;28;20182;-96
2021/12/06 13:24:48;;;;;;;9.83;7.57;;;;;;;;;;5133724;28;20206;-96
2021/12/06 13:27:43;;;;;;;12.07;9.17;;;;;;;;;;5128380;27;20551;-96
2021/12/06 13:30:21;;;;;;;10.63;7.03;;;;;;;;;;5115319;27;20199;-95
2021/12/06 13:32:51;;;;;;;9.57;6.83;;;;;;;;;;5133517;28;20202;-95
2021/12/06 13:35:23;;;;;;;5.47;3.67;;;;;;;;;;5133509;28;20229;-96
2021/12/06 13:38:04;;;;;;;9.33;4.77;;;;;;;;;;5133488;28;20191;-95
2021/12/06 13:40:33;;;;;;;7.60;5.57;;;;;;;;;;5133377;28;20234;-95
2021/12/06 13:43:08;;;;;;;4.33;3.93;;;;;;;;;;5133478;27;20207;-95
2021/12/06 13:45:41;;;;;;;8.07;5.40;;;;;;;;;;5133560;28;20190;-95
2021/12/06 13:48:12;;;;;;;15.13;8.53;;;;;;;;;;5135274;27;20200;-95
2021/12/06 13:50:39;;;;;;;11.93;9.87;;;;;;;;;;5137581;27;20190;-95
2021/12/06 13:53:26;;;;;;;10.83;7.63;;;;;;;;;;5137116;27;20210;-95
2021/12/06 13:55:54;;;;;;;5.80;5.23;;;;;;;;;;5136907;27;20715;-95
2021/12/06 13:58:22;;;;;;;9.50;5.47;;;;;;;;;;5136846;27;20669;-95
2021/12/06 14:00:52;;;;;;;9.47;6.53;;;;;;;;;;5137228;27;20601;-95
2021/12/06 14:03:28;;;;;;;16.10;12.33;;;;;;;;;;5136849;27;20200;-95
2021/12/06 14:05:56;;;;;;;11.47;9.00;;;;;;;;;;5136976;27;20187;-96
2021/12/06 14:08:26;;;;;;;49.60;39.60;;;;;;;;;;5137027;27;20704;-96
2021/12/06 14:10:54;;;;;;;17.10;14.77;;;;;;;;;;5137284;27;20197;-95
2021/12/06 14:13:22;;;;;;;18.47;11.57;;;;;;;;;;5136506;27;20195;-95
2021/12/06 14:15:54;;;;;;;5.07;3.63;;;;;;;;;;5136658;27;20251;-94
2021/12/06 14:18:25;;;;;;;15.33;11.27;;;;;;;;;;5136375;27;20189;-94
2021/12/06 14:20:53;;;;;;;26.07;20.53;;;;;;;;;;5136540;27;20225;-95
2021/12/06 14:23:22;;;;;;;47.73;32.50;;;;;;;;;;5136370;27;20289;-95
2021/12/06 14:25:51;;;;;;;10.53;8.30;;;;;;;;;;5136264;27;20200;-95
2021/12/06 14:28:19;;;;;;;11.53;7.17;;;;;;;;;;5136166;27;20195;-95
2021/12/06 14:30:47;;;;;;;10.40;8.40;;;;;;;;;;5136450;27;20584;-94
2021/12/06 14:33:16;;;;;;;14.33;9.83;;;;;;;;;;5136097;27;20194;-94
2021/12/06 14:35:44;;;;;;;13.80;10.60;;;;;;;;;;5136675;27;20214;-94
2021/12/06 14:38:12;;;;;;;38.20;32.67;;;;;;;;;;5135988;27;20739;-95
2021/12/06 14:40:40;;;;;;;48.27;42.57;;;;;;;;;;5135898;27;20598;-95
2021/12/06 14:43:12;;;;;;;6.33;4.77;;;;;;;;;;5135895;27;20198;-95
2021/12/06 14:45:39;;;;;;;15.03;12.40;;;;;;;;;;5135742;27;20286;-94
2021/12/06 14:48:11;;;;;;;13.63;10.57;;;;;;;;;;5135902;27;20205;-95
2021/12/06 14:51:00;;;;;;;7.23;4.20;;;;;;;;;;5135902;27;20202;-95
2021/12/06 14:53:36;;;;;;;7.43;5.60;;;;;;;;;;5135806;27;20195;-94
2021/12/06 14:56:14;;;;;;;15.63;11.67;;;;;;;;;;5136034;27;20187;-93
2021/12/06 14:58:42;;;;;;;9.50;7.63;;;;;;;;;;5135812;27;20198;-94
2021/12/06 15:01:13;;;;;;;12.83;9.47;;;;;;;;;;5136024;27;20190;-95
2021/12/06 15:03:44;;;;;;;12.07;8.50;;;;;;;;;;5135884;27;20275;-94
2021/12/06 15:06:13;;;;;;;8.40;4.57;;;;;;;;;;5135644;27;20193;-95
2021/12/06 15:08:43;;;;;;;6.67;5.00;;;;;;;;;;5135553;27;20278;-94
2021/12/06 15:11:12;;;;;;;9.90;5.93;;;;;;;;;;5135584;27;20191;-94
2021/12/06 15:13:41;;;;;;;7.03;5.17;;;;;;;;;;5135351;27;20191;-95